Time;durP1;ratioP1;P1;durP2;ratioP2;P2;SDS_P1;SDS_P2;PMS_P1;PMS_P2;Temp;Humidity;BMP_temperature;BMP_pressure;BME280_temperature;BME280_humidity;BME280_pressure;Samples;Min_cycle;Max_cycle;Signal;HPM_P1;HPM_P2
2024/03/06 00:00:33;;;;;;;6.70;1.02;;;;;;;;;;4791104;29;20051;-82
2024/03/06 00:03:03;;;;;;;1.73;0.70;;;;;;;;;;4803997;29;20058;-82
2024/03/06 00:05:34;;;;;;;4.88;1.00;;;;;;;;;;4805534;29;20053;-80
2024/03/06 00:08:04;;;;;;;8.88;1.20;;;;;;;;;;4804974;29;20057;-79
2024/03/06 00:10:36;;;;;;;4.60;1.00;;;;;;;;;;4782600;29;20047;-81
2024/03/06 00:13:06;;;;;;;5.25;0.90;;;;;;;;;;4773590;30;20051;-80
2024/03/06 00:15:36;;;;;;;5.65;1.10;;;;;;;;;;4786289;29;20058;-81
2024/03/06 00:18:06;;;;;;;2.72;1.23;;;;;;;;;;4786993;30;20515;-82
2024/03/06 00:20:36;;;;;;;4.22;1.17;;;;;;;;;;4784355;30;20058;-81
2024/03/06 00:23:07;;;;;;;6.40;0.88;;;;;;;;;;4787077;30;20046;-81
2024/03/06 00:25:38;;;;;;;4.78;1.08;;;;;;;;;;4786963;30;20068;-85
2024/03/06 00:28:08;;;;;;;4.68;1.15;;;;;;;;;;4787245;30;20058;-81
2024/03/06 00:30:37;;;;;;;2.33;0.93;;;;;;;;;;4787049;30;20525;-82
2024/03/06 00:33:07;;;;;;;4.10;1.10;;;;;;;;;;4787033;30;20040;-82
2024/03/06 00:40:01;;;;;;;8.50;1.27;;;;;;;;;;4784072;30;20051;-81
2024/03/06 00:43:10;;;;;;;3.05;0.90;;;;;;;;;;4727709;30;20078;-82
2024/03/06 00:50:02;;;;;;;10.80;1.30;;;;;;;;;;4788473;29;20082;-81
2024/03/06 00:52:33;;;;;;;5.15;1.98;;;;;;;;;;4786092;30;20055;-80
2024/03/06 00:55:29;;;;;;;4.15;1.00;;;;;;;;;;4786166;30;20491;-80
2024/03/06 00:57:59;;;;;;;8.60;1.25;;;;;;;;;;4786752;30;20047;-80
2024/03/06 01:00:30;;;;;;;7.60;1.50;;;;;;;;;;4782291;29;20419;-80
2024/03/06 01:03:01;;;;;;;6.38;1.20;;;;;;;;;;4784310;30;20058;-81
2024/03/06 01:05:32;;;;;;;4.68;0.90;;;;;;;;;;4785891;30;20078;-79
2024/03/06 01:08:05;;;;;;;7.10;1.10;;;;;;;;;;4759761;30;20058;-80
2024/03/06 01:10:35;;;;;;;3.05;1.10;;;;;;;;;;4785709;30;20068;-81
2024/03/06 01:13:05;;;;;;;7.63;1.40;;;;;;;;;;4785995;30;20055;-81
2024/03/06 01:15:38;;;;;;;13.63;1.38;;;;;;;;;;4785790;30;20059;-81
2024/03/06 01:18:08;;;;;;;7.45;1.20;;;;;;;;;;4786423;30;20051;-84
2024/03/06 02:06:19;;;;;;;14.15;1.73;;;;;;;;;;4777783;29;20046;-81
2024/03/06 02:08:51;;;;;;;7.45;1.60;;;;;;;;;;4779261;30;20051;-82
2024/03/06 02:38:04;;;;;;;11.90;2.53;;;;;;;;;;4991849;24;20051;-83
2024/03/06 02:40:35;;;;;;;11.70;2.20;;;;;;;;;;4790467;29;20523;-83
2024/03/06 02:43:06;;;;;;;7.15;2.15;;;;;;;;;;4812337;29;20055;-82
2024/03/06 02:45:36;;;;;;;9.80;2.53;;;;;;;;;;4793068;29;20058;-82
2024/03/06 02:48:06;;;;;;;10.55;2.55;;;;;;;;;;4791962;29;20078;-83
2024/03/06 02:50:37;;;;;;;9.63;2.90;;;;;;;;;;4808660;29;20047;-80
2024/03/06 02:53:07;;;;;;;6.07;2.30;;;;;;;;;;4809139;29;20058;-82
2024/03/06 02:55:38;;;;;;;7.28;2.58;;;;;;;;;;4808619;29;20055;-82
2024/03/06 02:58:08;;;;;;;8.68;2.30;;;;;;;;;;4808849;29;20061;-81
2024/03/06 03:00:43;;;;;;;10.00;2.38;;;;;;;;;;4809282;29;20058;-81
2024/03/06 03:03:14;;;;;;;12.90;2.10;;;;;;;;;;4813481;29;20061;-82
2024/03/06 03:05:44;;;;;;;7.82;2.10;;;;;;;;;;4813156;29;20051;-81
2024/03/06 03:08:14;;;;;;;7.13;2.20;;;;;;;;;;4810586;29;20082;-79
2024/03/06 03:10:44;;;;;;;5.65;2.17;;;;;;;;;;4820064;29;20055;-79
2024/03/06 03:13:15;;;;;;;5.90;2.80;;;;;;;;;;4820011;29;20051;-79
2024/03/06 03:15:48;;;;;;;6.97;1.88;;;;;;;;;;4819132;29;20059;-79
2024/03/06 03:18:18;;;;;;;9.45;1.92;;;;;;;;;;4813919;29;20059;-84
2024/03/06 03:20:48;;;;;;;7.00;2.10;;;;;;;;;;4807341;29;20058;-82
2024/03/06 03:23:21;;;;;;;8.43;2.38;;;;;;;;;;4806000;29;20051;-83
2024/03/06 03:25:52;;;;;;;6.00;1.88;;;;;;;;;;4806357;29;20054;-82
2024/03/06 03:28:22;;;;;;;7.07;1.77;;;;;;;;;;4808104;29;20514;-82
2024/03/06 03:30:52;;;;;;;3.75;1.45;;;;;;;;;;4808184;29;20046;-83
2024/03/06 03:33:22;;;;;;;5.57;2.15;;;;;;;;;;4791144;29;20063;-82
2024/03/06 03:35:54;;;;;;;6.43;1.98;;;;;;;;;;4808526;29;20058;-82
2024/03/06 03:38:24;;;;;;;6.32;2.05;;;;;;;;;;4791100;29;20072;-83
2024/03/06 03:40:54;;;;;;;9.95;2.20;;;;;;;;;;4789523;30;20404;-82
2024/03/06 03:43:24;;;;;;;6.75;1.52;;;;;;;;;;4790044;30;20055;-86
2024/03/06 03:45:55;;;;;;;4.22;2.10;;;;;;;;;;4789030;30;20518;-84
2024/03/06 03:48:25;;;;;;;11.63;2.42;;;;;;;;;;4789487;29;20063;-83
2024/03/06 03:50:55;;;;;;;9.20;2.13;;;;;;;;;;4774144;30;20059;-82
2024/03/06 03:53:25;;;;;;;10.10;2.42;;;;;;;;;;4789836;30;20058;-82
2024/03/06 03:55:56;;;;;;;9.00;1.90;;;;;;;;;;4773009;30;20066;-81
2024/03/06 03:58:26;;;;;;;5.03;1.80;;;;;;;;;;4789862;30;20395;-85
2024/03/06 04:00:57;;;;;;;4.93;1.60;;;;;;;;;;4790034;29;20062;-84
2024/03/06 04:03:29;;;;;;;10.50;1.90;;;;;;;;;;4787076;30;20063;-82
2024/03/06 04:05:59;;;;;;;9.10;1.60;;;;;;;;;;4789336;30;20059;-85
2024/03/06 04:08:29;;;;;;;3.33;1.55;;;;;;;;;;4789717;29;20063;-84
2024/03/06 04:11:00;;;;;;;8.48;1.77;;;;;;;;;;4789162;29;20055;-85
2024/03/06 04:13:30;;;;;;;8.18;1.90;;;;;;;;;;4789160;29;20059;-81
2024/03/06 04:16:00;;;;;;;7.43;2.05;;;;;;;;;;4790142;29;20487;-80
2024/03/06 04:18:33;;;;;;;5.63;2.05;;;;;;;;;;4788059;29;20055;-83
2024/03/06 04:21:05;;;;;;;7.43;1.70;;;;;;;;;;4789327;30;20059;-80
2024/03/06 04:23:36;;;;;;;7.68;1.85;;;;;;;;;;4789741;29;20074;-79
2024/03/06 04:26:07;;;;;;;8.30;1.90;;;;;;;;;;4788970;29;20047;-80
2024/03/06 04:28:37;;;;;;;7.93;1.80;;;;;;;;;;4789475;29;20051;-84
2024/03/06 04:31:08;;;;;;;7.93;1.98;;;;;;;;;;4788681;30;20066;-80
2024/03/06 04:33:38;;;;;;;8.30;1.70;;;;;;;;;;4789184;29;20058;-81
2024/03/06 04:36:08;;;;;;;10.40;2.03;;;;;;;;;;4788912;29;20368;-80
2024/03/06 04:38:38;;;;;;;8.73;1.80;;;;;;;;;;4807675;29;20055;-81
2024/03/06 04:41:10;;;;;;;5.82;1.70;;;;;;;;;;4806746;29;20066;-80
2024/03/06 04:43:42;;;;;;;6.95;1.50;;;;;;;;;;4807262;29;20059;-81
2024/03/06 04:46:15;;;;;;;6.25;1.58;;;;;;;;;;4806869;29;20042;-81
2024/03/06 04:48:47;;;;;;;5.00;1.67;;;;;;;;;;4805937;29;20051;-81
2024/03/06 04:51:20;;;;;;;7.55;1.98;;;;;;;;;;4807007;29;20047;-83
2024/03/06 04:53:50;;;;;;;9.77;1.77;;;;;;;;;;4791397;29;20054;-81
2024/03/06 04:56:22;;;;;;;5.90;1.60;;;;;;;;;;4807506;29;20054;-83
2024/03/06 04:58:56;;;;;;;11.95;1.67;;;;;;;;;;4808020;29;20483;-84
2024/03/06 05:01:29;;;;;;;6.07;1.95;;;;;;;;;;4803447;29;20421;-80
2024/03/06 05:03:59;;;;;;;6.45;1.77;;;;;;;;;;4808860;29;20065;-81
2024/03/06 05:06:47;;;;;;;10.40;1.77;;;;;;;;;;4806436;29;20065;-81
2024/03/06 05:09:34;;;;;;;9.10;3.08;;;;;;;;;;4806273;29;20458;-81
2024/03/06 05:12:21;;;;;;;16.02;2.85;;;;;;;;;;4789451;29;20058;-84
2024/03/06 05:15:08;;;;;;;12.90;2.60;;;;;;;;;;4805812;29;20167;-81
2024/03/06 05:17:55;;;;;;;30.23;3.42;;;;;;;;;;4806436;29;20058;-81
2024/03/06 05:20:43;;;;;;;13.65;2.42;;;;;;;;;;4806116;29;20050;-85
2024/03/06 05:23:29;;;;;;;8.55;2.70;;;;;;;;;;4811587;29;20050;-84
2024/03/06 05:26:16;;;;;;;25.17;3.75;;;;;;;;;;4792774;29;20418;-83
2024/03/06 05:29:02;;;;;;;12.45;1.90;;;;;;;;;;4792254;29;20042;-81
2024/03/06 05:31:49;;;;;;;6.38;2.00;;;;;;;;;;4771966;30;20054;-81
2024/03/06 05:34:36;;;;;;;18.30;2.75;;;;;;;;;;4788350;30;20054;-81
2024/03/06 05:37:22;;;;;;;47.88;3.35;;;;;;;;;;4788232;29;20408;-81
2024/03/06 05:40:10;;;;;;;7.07;2.33;;;;;;;;;;4774518;30;20043;-86
2024/03/06 05:42:57;;;;;;;17.45;1.98;;;;;;;;;;4774828;30;20044;-80
2024/03/06 05:45:43;;;;;;;15.10;2.40;;;;;;;;;;4776170;30;20039;-81
2024/03/06 05:48:29;;;;;;;8.07;2.35;;;;;;;;;;4788799;30;20051;-80
2024/03/06 05:51:16;;;;;;;7.60;2.10;;;;;;;;;;4789408;30;20068;-80
2024/03/06 05:54:04;;;;;;;18.98;3.08;;;;;;;;;;4789345;30;20043;-80
2024/03/06 05:56:54;;;;;;;6.68;2.55;;;;;;;;;;4774028;30;20066;-80
2024/03/06 05:59:40;;;;;;;27.08;3.70;;;;;;;;;;4789909;29;20051;-81
2024/03/06 06:02:10;;;;;;;23.23;3.80;;;;;;;;;;4792480;29;20070;-85
2024/03/06 06:04:43;;;;;;;11.80;3.80;;;;;;;;;;4791642;30;20103;-80
2024/03/06 06:07:28;;;;;;;14.13;3.75;;;;;;;;;;4792510;30;20051;-81
2024/03/06 06:09:58;;;;;;;31.48;4.75;;;;;;;;;;4791572;29;20059;-81
2024/03/06 06:12:28;;;;;;;17.65;4.03;;;;;;;;;;4791701;30;20058;-83
2024/03/06 06:15:00;;;;;;;30.33;5.50;;;;;;;;;;4791624;30;20074;-83
2024/03/06 06:17:30;;;;;;;14.18;4.20;;;;;;;;;;4791696;29;20048;-83
2024/03/06 06:20:00;;;;;;;16.02;4.43;;;;;;;;;;4791065;30;20051;-80
2024/03/06 06:22:31;;;;;;;12.43;3.90;;;;;;;;;;4791365;30;20051;-82
2024/03/06 06:25:03;;;;;;;30.17;4.72;;;;;;;;;;4790783;29;20380;-81
2024/03/06 06:27:34;;;;;;;16.98;4.72;;;;;;;;;;4791344;30;20055;-82
2024/03/06 06:30:05;;;;;;;13.48;4.32;;;;;;;;;;4791209;29;20050;-81
2024/03/06 06:32:38;;;;;;;19.25;4.05;;;;;;;;;;4791696;30;20058;-80
2024/03/06 06:35:13;;;;;;;30.42;4.40;;;;;;;;;;4791343;30;20066;-84
2024/03/06 06:37:46;;;;;;;13.48;3.60;;;;;;;;;;4791250;29;20060;-81
2024/03/06 06:40:16;;;;;;;21.38;3.00;;;;;;;;;;4791016;30;20403;-81
2024/03/06 06:42:49;;;;;;;12.27;2.80;;;;;;;;;;4790762;30;20070;-80
2024/03/06 06:45:21;;;;;;;12.65;4.80;;;;;;;;;;4791091;30;20059;-82
2024/03/06 06:47:53;;;;;;;16.35;5.28;;;;;;;;;;4791333;30;20055;-86
2024/03/06 06:50:25;;;;;;;23.02;5.40;;;;;;;;;;4790790;30;20047;-84
2024/03/06 06:52:56;;;;;;;15.05;4.28;;;;;;;;;;4790668;30;20055;-83
2024/03/06 06:55:26;;;;;;;21.67;6.15;;;;;;;;;;4791204;30;20495;-81
2024/03/06 06:57:56;;;;;;;17.42;6.75;;;;;;;;;;4775053;30;20151;-83
2024/03/06 07:00:26;;;;;;;20.30;6.50;;;;;;;;;;4790799;29;20052;-84
2024/03/06 07:02:58;;;;;;;15.90;5.30;;;;;;;;;;4790668;30;20043;-83
2024/03/06 07:05:30;;;;;;;12.82;3.90;;;;;;;;;;4783440;30;20495;-81
2024/03/06 07:08:00;;;;;;;10.13;2.85;;;;;;;;;;4790882;29;20499;-83
2024/03/06 07:10:31;;;;;;;9.57;3.40;;;;;;;;;;4791013;30;20059;-82
2024/03/06 07:13:02;;;;;;;7.55;3.28;;;;;;;;;;4790152;30;20051;-82
2024/03/06 07:15:35;;;;;;;28.55;3.70;;;;;;;;;;4788551;30;20052;-85
2024/03/06 07:18:05;;;;;;;23.08;3.05;;;;;;;;;;4773987;30;20127;-83
2024/03/06 07:20:36;;;;;;;30.88;3.08;;;;;;;;;;4790808;30;20047;-83
2024/03/06 07:23:07;;;;;;;26.50;2.83;;;;;;;;;;4790391;30;20052;-82
2024/03/06 07:25:38;;;;;;;6.13;2.35;;;;;;;;;;4790260;29;20056;-85
2024/03/06 07:28:08;;;;;;;9.05;2.63;;;;;;;;;;4790231;29;20515;-81
2024/03/06 07:30:40;;;;;;;17.58;3.15;;;;;;;;;;4790613;29;20062;-81
2024/03/06 07:33:10;;;;;;;23.90;2.60;;;;;;;;;;4789886;30;20050;-82
2024/03/06 07:35:42;;;;;;;12.27;2.30;;;;;;;;;;4790148;30;20418;-82
2024/03/06 07:38:12;;;;;;;3.38;1.88;;;;;;;;;;4789823;29;20070;-81
2024/03/06 07:40:43;;;;;;;13.60;2.90;;;;;;;;;;4790076;30;20082;-82
2024/03/06 07:43:14;;;;;;;22.40;2.35;;;;;;;;;;4772865;30;20072;-81
2024/03/06 07:45:45;;;;;;;7.82;2.42;;;;;;;;;;4789810;30;20051;-81
2024/03/06 07:48:15;;;;;;;11.05;2.40;;;;;;;;;;4790269;30;20391;-80
2024/03/06 07:50:45;;;;;;;8.95;2.50;;;;;;;;;;4790043;29;20058;-80
2024/03/06 07:53:15;;;;;;;16.55;2.70;;;;;;;;;;4789704;29;20054;-81
2024/03/06 07:55:46;;;;;;;17.83;2.70;;;;;;;;;;4789741;30;20048;-80
2024/03/06 07:58:16;;;;;;;20.67;3.28;;;;;;;;;;4789521;29;20510;-82
2024/03/06 08:00:46;;;;;;;7.22;2.53;;;;;;;;;;4793461;29;20399;-82
2024/03/06 08:03:16;;;;;;;10.23;3.28;;;;;;;;;;4806405;29;20426;-81
2024/03/06 08:05:46;;;;;;;9.60;2.75;;;;;;;;;;4778971;30;20051;-86
2024/03/06 08:08:16;;;;;;;20.83;3.05;;;;;;;;;;4789456;29;20060;-81
2024/03/06 08:10:47;;;;;;;19.92;3.20;;;;;;;;;;4789049;30;20062;-80
2024/03/06 08:13:19;;;;;;;13.13;3.10;;;;;;;;;;4789499;30;20047;-82
2024/03/06 08:15:49;;;;;;;11.60;2.97;;;;;;;;;;4788805;30;20043;-84
2024/03/06 08:18:19;;;;;;;30.45;3.83;;;;;;;;;;4789622;29;20395;-83
2024/03/06 08:20:49;;;;;;;17.08;3.10;;;;;;;;;;4793974;29;20047;-85
2024/03/06 08:23:19;;;;;;;29.30;3.60;;;;;;;;;;4806404;29;20047;-81
2024/03/06 08:25:50;;;;;;;31.83;5.13;;;;;;;;;;4806794;29;20422;-81
2024/03/06 08:28:20;;;;;;;12.32;4.03;;;;;;;;;;4803847;29;20053;-82
2024/03/06 08:30:52;;;;;;;16.35;3.78;;;;;;;;;;4781018;29;20051;-82
2024/03/06 08:33:22;;;;;;;13.35;3.85;;;;;;;;;;4807214;29;20050;-82
2024/03/06 08:35:53;;;;;;;18.98;4.20;;;;;;;;;;4807339;29;20054;-82
2024/03/06 08:38:23;;;;;;;20.35;3.72;;;;;;;;;;4801761;29;20058;-86
2024/03/06 08:40:53;;;;;;;18.15;4.07;;;;;;;;;;4789212;30;20058;-84
2024/03/06 08:43:26;;;;;;;10.02;3.97;;;;;;;;;;4774250;30;20059;-81
2024/03/06 08:45:58;;;;;;;19.52;4.75;;;;;;;;;;4775833;30;20055;-82
2024/03/06 08:48:29;;;;;;;36.85;6.55;;;;;;;;;;4794487;30;20047;-81
2024/03/06 08:50:59;;;;;;;40.05;7.55;;;;;;;;;;4796828;30;20056;-79
2024/03/06 08:53:30;;;;;;;26.20;7.38;;;;;;;;;;4805119;29;20053;-79
2024/03/06 08:56:01;;;;;;;36.08;9.05;;;;;;;;;;4820315;29;20059;-78
2024/03/06 08:58:31;;;;;;;34.55;9.35;;;;;;;;;;4801793;29;20065;-80
2024/03/06 09:01:02;;;;;;;32.08;9.60;;;;;;;;;;4807225;29;20062;-86
2024/03/06 09:03:32;;;;;;;40.58;9.93;;;;;;;;;;4805895;29;20520;-84
2024/03/06 09:06:02;;;;;;;31.75;8.60;;;;;;;;;;4803414;29;20051;-83
2024/03/06 09:08:34;;;;;;;36.47;9.65;;;;;;;;;;4808110;29;20560;-85
2024/03/06 09:11:05;;;;;;;38.78;10.63;;;;;;;;;;4806521;29;20051;-81
2024/03/06 09:13:36;;;;;;;39.65;9.93;;;;;;;;;;4806112;29;20058;-81
2024/03/06 09:16:07;;;;;;;32.60;8.70;;;;;;;;;;4806075;29;20050;-81
2024/03/06 09:18:37;;;;;;;26.42;9.05;;;;;;;;;;4806801;29;20055;-81
2024/03/06 09:21:08;;;;;;;29.50;7.53;;;;;;;;;;4807048;29;20051;-82
2024/03/06 09:23:38;;;;;;;37.45;8.55;;;;;;;;;;4799278;29;20066;-81
2024/03/06 09:26:09;;;;;;;40.75;8.13;;;;;;;;;;4787865;30;20499;-81
2024/03/06 09:28:40;;;;;;;30.95;8.55;;;;;;;;;;4792098;29;20062;-86
2024/03/06 09:31:13;;;;;;;26.13;6.50;;;;;;;;;;4805752;29;20051;-81
2024/03/06 09:33:43;;;;;;;48.38;8.07;;;;;;;;;;4806280;29;20046;-82
2024/03/06 09:36:13;;;;;;;26.08;9.07;;;;;;;;;;4805912;29;20043;-87
2024/03/06 09:38:44;;;;;;;31.85;8.50;;;;;;;;;;4806703;29;20062;-84
2024/03/06 09:41:14;;;;;;;28.48;8.77;;;;;;;;;;4806169;29;20047;-82
2024/03/06 09:43:48;;;;;;;30.80;8.55;;;;;;;;;;4805923;29;20403;-83
2024/03/06 09:46:18;;;;;;;27.83;7.72;;;;;;;;;;4789280;29;20047;-82
2024/03/06 09:48:51;;;;;;;21.05;7.38;;;;;;;;;;4806169;29;20060;-82
2024/03/06 09:51:23;;;;;;;38.60;7.28;;;;;;;;;;4805770;29;20043;-81
2024/03/06 09:53:53;;;;;;;32.60;7.22;;;;;;;;;;4790896;29;20058;-82
2024/03/06 09:56:24;;;;;;;28.50;7.43;;;;;;;;;;4805878;29;20047;-82
2024/03/06 09:58:56;;;;;;;56.25;8.32;;;;;;;;;;4789617;29;20061;-81
2024/03/06 10:01:27;;;;;;;28.88;6.88;;;;;;;;;;4805646;29;20077;-81
2024/03/06 10:03:57;;;;;;;23.73;7.55;;;;;;;;;;4806113;29;20385;-80
2024/03/06 10:06:30;;;;;;;23.75;7.35;;;;;;;;;;4805708;29;20051;-82
2024/03/06 10:09:08;;;;;;;29.42;8.23;;;;;;;;;;4805912;29;20055;-80
2024/03/06 10:11:42;;;;;;;35.67;7.75;;;;;;;;;;4775012;29;20055;-79
2024/03/06 10:14:13;;;;;;;22.75;8.13;;;;;;;;;;4806722;29;20490;-81
2024/03/06 10:16:59;;;;;;;34.22;5.80;;;;;;;;;;4805510;29;20058;-85
2024/03/06 10:19:31;;;;;;;60.05;7.80;;;;;;;;;;4806057;29;20476;-80
2024/03/06 10:22:01;;;;;;;30.00;7.90;;;;;;;;;;4806349;29;20122;-82
2024/03/06 10:24:31;;;;;;;40.67;7.93;;;;;;;;;;4805900;29;20074;-80
2024/03/06 10:27:01;;;;;;;24.33;7.32;;;;;;;;;;4805826;29;20051;-81
2024/03/06 10:29:31;;;;;;;36.70;7.35;;;;;;;;;;4789694;29;20094;-81
2024/03/06 10:32:01;;;;;;;22.73;6.90;;;;;;;;;;4805718;29;20075;-84
2024/03/06 10:34:33;;;;;;;20.63;6.90;;;;;;;;;;4805903;29;20047;-82
2024/03/06 10:37:05;;;;;;;25.02;6.75;;;;;;;;;;4805782;29;20063;-81
2024/03/06 10:39:39;;;;;;;30.17;6.82;;;;;;;;;;4810650;29;20145;-81
2024/03/06 10:42:12;;;;;;;26.10;7.25;;;;;;;;;;4823979;29;20051;-81
2024/03/06 10:44:53;;;;;;;30.17;7.35;;;;;;;;;;4812968;29;20038;-83
2024/03/06 10:47:26;;;;;;;23.73;7.40;;;;;;;;;;4790462;29;20081;-82
2024/03/06 10:50:04;;;;;;;22.85;7.70;;;;;;;;;;4812680;29;20057;-81
2024/03/06 10:52:34;;;;;;;18.48;7.00;;;;;;;;;;4810219;29;20066;-81
2024/03/06 10:55:05;;;;;;;22.50;5.72;;;;;;;;;;4790474;29;20047;-84
2024/03/06 10:57:39;;;;;;;19.42;5.80;;;;;;;;;;4812437;29;20411;-83
2024/03/06 11:00:11;;;;;;;16.63;6.72;;;;;;;;;;4805821;29;20055;-82
2024/03/06 11:02:42;;;;;;;17.88;6.32;;;;;;;;;;4806218;29;20081;-83
2024/03/06 11:05:12;;;;;;;19.58;6.25;;;;;;;;;;4806960;29;20514;-80
2024/03/06 11:07:43;;;;;;;15.50;5.63;;;;;;;;;;4806534;29;20050;-87
2024/03/06 11:10:17;;;;;;;15.52;6.03;;;;;;;;;;4809998;29;20055;-85
2024/03/06 11:12:48;;;;;;;13.00;5.10;;;;;;;;;;4797160;29;20081;-81
2024/03/06 11:15:18;;;;;;;11.30;5.15;;;;;;;;;;4824960;29;20418;-83
2024/03/06 11:17:48;;;;;;;12.70;4.80;;;;;;;;;;4824954;29;20520;-83
2024/03/06 11:20:20;;;;;;;15.13;6.25;;;;;;;;;;4823377;29;20421;-81
2024/03/06 11:23:02;;;;;;;;;;;;;;;;;;4823176;29;20418;-80
2024/03/06 11:25:47;;;;;;;16.23;5.95;;;;;;;;;;4825034;29;19931;-80
2024/03/06 11:28:21;;;;;;;13.52;5.13;;;;;;;;;;4824641;29;20055;-81
2024/03/06 11:30:59;;;;;;;13.55;5.60;;;;;;;;;;4808956;29;20051;-81
2024/03/06 11:33:40;;;;;;;15.82;6.57;;;;;;;;;;4819311;29;20062;-81
2024/03/06 11:36:20;;;;;;;19.40;6.82;;;;;;;;;;4811985;29;20045;-83
2024/03/06 11:38:59;;;;;;;19.25;6.90;;;;;;;;;;4772834;30;20415;-80
2024/03/06 11:41:48;;;;;;;22.42;8.07;;;;;;;;;;4807887;29;20039;-80
2024/03/06 11:44:23;;;;;;;21.05;7.30;;;;;;;;;;4807649;29;20521;-80
2024/03/06 11:47:08;;;;;;;23.65;8.48;;;;;;;;;;4790626;29;20065;-80
2024/03/06 11:49:40;;;;;;;24.13;8.38;;;;;;;;;;4806562;29;20051;-83
2024/03/06 11:52:10;;;;;;;28.40;10.05;;;;;;;;;;4806674;29;20051;-80
2024/03/06 11:54:41;;;;;;;26.83;10.23;;;;;;;;;;4806316;29;20054;-82
2024/03/06 11:57:12;;;;;;;27.23;9.48;;;;;;;;;;4806278;29;20066;-82
2024/03/06 11:59:42;;;;;;;23.85;9.55;;;;;;;;;;4807049;29;20061;-83
2024/03/06 12:02:13;;;;;;;21.88;9.20;;;;;;;;;;4790268;29;20506;-81
2024/03/06 12:04:45;;;;;;;;;;;;;;;;;;4806753;29;20047;-83
2024/03/06 12:07:15;;;;;;;24.17;8.43;;;;;;;;;;4808425;29;19925;-80
2024/03/06 12:09:46;;;;;;;16.75;7.35;;;;;;;;;;4821135;29;20431;-81
2024/03/06 12:12:17;;;;;;;15.48;7.55;;;;;;;;;;4811628;29;20058;-84
2024/03/06 12:15:04;;;;;;;13.85;6.60;;;;;;;;;;4806743;29;20422;-82
2024/03/06 12:17:46;;;;;;;14.85;5.75;;;;;;;;;;4788751;29;20047;-80
2024/03/06 12:20:16;;;;;;;14.82;6.07;;;;;;;;;;4788572;30;20054;-83
2024/03/06 12:22:50;;;;;;;12.65;4.78;;;;;;;;;;4805159;29;20047;-82
2024/03/06 12:25:26;;;;;;;9.45;4.25;;;;;;;;;;4793866;29;20051;-81
2024/03/06 12:28:10;;;;;;;8.23;3.30;;;;;;;;;;4804276;29;20054;-82
2024/03/06 12:30:44;;;;;;;7.20;3.92;;;;;;;;;;4823255;29;20052;-81
2024/03/06 12:33:17;;;;;;;11.65;4.00;;;;;;;;;;4807700;29;20057;-82
2024/03/06 12:35:48;;;;;;;8.57;4.75;;;;;;;;;;4824436;29;20391;-81
2024/03/06 12:38:18;;;;;;;7.57;3.90;;;;;;;;;;4822948;29;20051;-83
2024/03/06 12:40:49;;;;;;;11.52;3.50;;;;;;;;;;4824584;29;20046;-82
2024/03/06 12:43:19;;;;;;;8.50;3.67;;;;;;;;;;4824427;29;20505;-85
2024/03/06 12:45:49;;;;;;;8.68;3.53;;;;;;;;;;4807022;29;20050;-82
2024/03/06 12:48:19;;;;;;;7.70;3.47;;;;;;;;;;4813158;29;20053;-81
2024/03/06 12:50:51;;;;;;;7.10;3.53;;;;;;;;;;4804073;29;20059;-82
2024/03/06 12:53:23;;;;;;;7.32;3.70;;;;;;;;;;4805854;29;20051;-83
2024/03/06 12:55:54;;;;;;;7.72;4.57;;;;;;;;;;4805536;29;20414;-80
2024/03/06 12:58:24;;;;;;;5.65;3.00;;;;;;;;;;4805811;29;20522;-82
2024/03/06 13:00:54;;;;;;;8.07;3.55;;;;;;;;;;4805571;29;20047;-82
2024/03/06 13:03:25;;;;;;;7.35;3.58;;;;;;;;;;4813457;29;20057;-81
2024/03/06 13:05:55;;;;;;;9.23;3.85;;;;;;;;;;4817401;29;20449;-81
2024/03/06 13:08:25;;;;;;;5.68;3.25;;;;;;;;;;4824057;29;20061;-84
2024/03/06 13:10:56;;;;;;;6.18;3.63;;;;;;;;;;4821673;29;20050;-81
2024/03/06 13:13:28;;;;;;;5.65;3.20;;;;;;;;;;4819070;29;20054;-82
2024/03/06 13:16:00;;;;;;;15.02;9.18;;;;;;;;;;4796657;29;20433;-82
2024/03/06 13:18:35;;;;;;;10.52;7.03;;;;;;;;;;4797110;29;20059;-81
2024/03/06 13:21:06;;;;;;;22.83;16.15;;;;;;;;;;4805360;29;20054;-83
2024/03/06 13:23:36;;;;;;;18.77;9.07;;;;;;;;;;4811613;29;20062;-84
2024/03/06 13:26:07;;;;;;;46.92;18.65;;;;;;;;;;4823574;29;20403;-84
2024/03/06 13:28:37;;;;;;;9.60;5.20;;;;;;;;;;4806403;29;20055;-82
2024/03/06 13:31:08;;;;;;;7.32;4.00;;;;;;;;;;4811629;29;20046;-81
2024/03/06 13:33:38;;;;;;;10.77;4.10;;;;;;;;;;4821341;29;20047;-81
2024/03/06 13:36:08;;;;;;;8.20;3.75;;;;;;;;;;4812466;29;20046;-80
2024/03/06 13:38:39;;;;;;;7.13;2.80;;;;;;;;;;4822319;29;20046;-81
2024/03/06 13:41:10;;;;;;;8.25;4.18;;;;;;;;;;4821480;29;20512;-80
2024/03/06 13:43:40;;;;;;;5.68;2.90;;;;;;;;;;4806185;29;20070;-80
2024/03/06 13:46:10;;;;;;;6.10;3.38;;;;;;;;;;4823327;29;20525;-82
2024/03/06 13:48:40;;;;;;;6.55;3.65;;;;;;;;;;4823719;29;20057;-81
2024/03/06 13:51:09;;;;;;;4.32;2.92;;;;;;;;;;4807459;29;20050;-82
2024/03/06 13:53:40;;;;;;;10.52;4.15;;;;;;;;;;4823418;29;20046;-82
2024/03/06 13:56:10;;;;;;;7.68;3.42;;;;;;;;;;4818393;29;20057;-83
2024/03/06 13:58:41;;;;;;;5.18;3.88;;;;;;;;;;4805207;29;20058;-83
2024/03/06 14:01:13;;;;;;;8.35;3.40;;;;;;;;;;4804694;29;20527;-82
2024/03/06 14:03:42;;;;;;;5.18;3.28;;;;;;;;;;4803668;29;20055;-81
2024/03/06 14:06:13;;;;;;;7.70;3.28;;;;;;;;;;4787979;29;20543;-83
2024/03/06 14:08:43;;;;;;;8.07;3.60;;;;;;;;;;4807541;29;20058;-84
2024/03/06 14:11:14;;;;;;;5.43;3.05;;;;;;;;;;4817831;29;20510;-82
2024/03/06 14:13:44;;;;;;;6.43;3.03;;;;;;;;;;4823278;29;20058;-82
2024/03/06 14:16:14;;;;;;;5.32;3.00;;;;;;;;;;4816926;29;20059;-83
2024/03/06 14:18:45;;;;;;;5.82;2.60;;;;;;;;;;4805037;29;20039;-84
2024/03/06 14:21:15;;;;;;;6.22;2.60;;;;;;;;;;4796255;29;20061;-83
2024/03/06 14:23:45;;;;;;;5.72;2.65;;;;;;;;;;4809192;29;20419;-82
2024/03/06 14:26:16;;;;;;;9.77;3.30;;;;;;;;;;4792116;29;20051;-82
2024/03/06 14:28:47;;;;;;;6.82;3.05;;;;;;;;;;4806838;29;20070;-83
2024/03/06 14:31:17;;;;;;;5.28;2.95;;;;;;;;;;4809353;29;20054;-81
2024/03/06 14:33:48;;;;;;;5.45;2.75;;;;;;;;;;4808958;29;20054;-82
2024/03/06 14:36:21;;;;;;;7.28;2.70;;;;;;;;;;4821256;29;20057;-83
2024/03/06 14:38:53;;;;;;;4.10;2.75;;;;;;;;;;4812498;29;20051;-81
2024/03/06 14:41:23;;;;;;;4.88;2.40;;;;;;;;;;4793572;29;20075;-82
2024/03/06 14:43:54;;;;;;;6.38;2.90;;;;;;;;;;4814628;29;20061;-79
2024/03/06 14:46:24;;;;;;;4.45;2.97;;;;;;;;;;4809206;29;20058;-79
2024/03/06 14:48:54;;;;;;;5.18;2.33;;;;;;;;;;4824910;29;20054;-78
2024/03/06 14:51:24;;;;;;;3.80;2.00;;;;;;;;;;4823793;29;20058;-78
2024/03/06 14:53:55;;;;;;;5.35;2.60;;;;;;;;;;4820998;29;20076;-78
2024/03/06 14:56:25;;;;;;;5.63;2.58;;;;;;;;;;4812332;29;20054;-81
2024/03/06 14:58:55;;;;;;;5.32;2.53;;;;;;;;;;4799524;29;20058;-80
2024/03/06 15:01:26;;;;;;;6.45;2.10;;;;;;;;;;4805383;29;20054;-81
2024/03/06 15:03:58;;;;;;;4.03;2.35;;;;;;;;;;4808114;29;20054;-80
2024/03/06 15:06:29;;;;;;;9.07;2.13;;;;;;;;;;4807520;29;20422;-80
2024/03/06 15:08:59;;;;;;;5.03;2.15;;;;;;;;;;4819147;29;20046;-81
2024/03/06 15:11:32;;;;;;;5.72;2.30;;;;;;;;;;4824433;29;20046;-81
2024/03/06 15:14:03;;;;;;;4.97;2.40;;;;;;;;;;4825822;29;20058;-82
2024/03/06 15:16:39;;;;;;;5.13;2.10;;;;;;;;;;4782299;29;20129;-82
2024/03/06 15:19:10;;;;;;;3.60;1.95;;;;;;;;;;4811304;29;20510;-82
2024/03/06 15:21:40;;;;;;;3.45;1.92;;;;;;;;;;4815444;29;20497;-84
2024/03/06 15:24:10;;;;;;;4.53;1.92;;;;;;;;;;4810133;29;20062;-83
2024/03/06 15:26:40;;;;;;;4.78;1.75;;;;;;;;;;4805641;29;20518;-83
2024/03/06 15:29:12;;;;;;;4.43;2.03;;;;;;;;;;4805604;29;20062;-82
2024/03/06 15:31:43;;;;;;;6.20;2.00;;;;;;;;;;4791034;29;20043;-82
2024/03/06 15:34:13;;;;;;;2.30;1.52;;;;;;;;;;4790241;29;20065;-85
2024/03/06 15:36:44;;;;;;;6.78;1.75;;;;;;;;;;4805878;29;20622;-83
2024/03/06 15:39:14;;;;;;;5.07;1.45;;;;;;;;;;4789931;29;20062;-82
2024/03/06 15:41:44;;;;;;;3.53;1.80;;;;;;;;;;4807354;29;20042;-84
2024/03/06 15:44:14;;;;;;;4.88;1.83;;;;;;;;;;4807397;29;20051;-83
2024/03/06 15:46:44;;;;;;;4.47;1.70;;;;;;;;;;4807329;29;20058;-85
2024/03/06 15:49:31;;;;;;;2.50;1.58;;;;;;;;;;4807685;29;20058;-84
2024/03/06 15:52:05;;;;;;;9.70;1.63;;;;;;;;;;4806203;29;20402;-83
2024/03/06 15:54:38;;;;;;;6.20;2.17;;;;;;;;;;4806965;29;20420;-82
2024/03/06 15:57:09;;;;;;;2.78;1.52;;;;;;;;;;4791363;29;20043;-83
2024/03/06 15:59:40;;;;;;;2.80;1.42;;;;;;;;;;4790471;29;20062;-83
2024/03/06 16:02:11;;;;;;;5.95;1.33;;;;;;;;;;4806117;29;20502;-83
2024/03/06 16:04:41;;;;;;;2.45;1.58;;;;;;;;;;4806783;29;20058;-83
2024/03/06 16:07:12;;;;;;;4.43;1.50;;;;;;;;;;4791017;29;20077;-82
2024/03/06 16:09:43;;;;;;;2.63;1.10;;;;;;;;;;4807117;29;20055;-81
2024/03/06 16:12:13;;;;;;;2.83;1.40;;;;;;;;;;4806876;29;20603;-82
2024/03/06 16:14:45;;;;;;;3.60;1.50;;;;;;;;;;4790095;29;20510;-83
2024/03/06 16:17:15;;;;;;;4.28;1.10;;;;;;;;;;4790368;29;20055;-83
2024/03/06 16:19:46;;;;;;;2.20;1.50;;;;;;;;;;4791009;29;20073;-83
2024/03/06 16:22:17;;;;;;;5.32;1.40;;;;;;;;;;4806758;29;20043;-82
2024/03/06 16:24:48;;;;;;;3.40;1.48;;;;;;;;;;4806586;29;20506;-82
2024/03/06 16:27:18;;;;;;;4.35;1.50;;;;;;;;;;4806827;29;20430;-82